Ridgefield, North Carolina
Current Conditions -  °F | °C
As of 8:54 PM on Saturday 25 Oct 2014 (Local Time) from KGSO Reporting Station
Clear Clear  
Wind Chill: 60°   Ceiling: Unl
Heat Index: 60°   Visibility: 10mi
Dew Point: 38°   Wind: 8mph
Humidity: 44%   Direction: 250°WSW
Pressure: 29.91"   Gusts: NA
Location:  36.1197°N, 79.8944°W
Report Text: KGSO 260054Z 25007KT 10SM CLR 16/03 A2991 RMK AO2 SLP125 T01560033
Loading
Personal Weather Stations






























Interactive Weather Map
Tropical Storm Tracking
New forecast layout! Learn more

10-Day Weather Forecast

Advertisements
Track Severe Weather on mobile